createdAt,value
2019-05-29T00:02:10.070Z,11.20
2019-05-29T00:06:21.917Z,11.10
2019-05-29T00:10:34.533Z,11.10
2019-05-29T00:14:46.447Z,11.20
2019-05-29T00:18:58.441Z,11.20
2019-05-29T00:23:10.535Z,11.10
2019-05-29T00:27:22.361Z,11.00
2019-05-29T00:31:34.425Z,11.00
2019-05-29T00:35:46.261Z,11.10
2019-05-29T00:39:58.691Z,11.10
2019-05-29T00:44:11.148Z,11.10
2019-05-29T00:48:22.996Z,11.10
2019-05-29T00:52:34.909Z,11.10
2019-05-29T00:56:46.861Z,10.90
2019-05-29T01:00:58.817Z,10.70
2019-05-29T01:05:11.897Z,10.60
2019-05-29T01:09:23.666Z,10.60
2019-05-29T01:13:35.452Z,10.60
2019-05-29T01:17:47.243Z,10.60
2019-05-29T01:21:59.362Z,10.70
2019-05-29T01:26:11.161Z,10.90
2019-05-29T01:30:23.976Z,10.90
2019-05-29T01:34:35.833Z,10.90
2019-05-29T01:38:48.643Z,10.80
2019-05-29T01:43:00.223Z,10.70
2019-05-29T01:47:12.006Z,10.80
2019-05-29T01:51:23.889Z,10.80
2019-05-29T01:55:36.071Z,10.90
2019-05-29T01:59:49.054Z,10.90
2019-05-29T02:04:00.772Z,11.00
2019-05-29T02:08:12.529Z,11.00
2019-05-29T02:12:24.480Z,10.90
2019-05-29T02:16:36.380Z,10.80
2019-05-29T02:20:48.175Z,10.70
2019-05-29T02:25:00.580Z,10.80
2019-05-29T02:29:12.493Z,10.80
2019-05-29T02:33:26.181Z,10.80
2019-05-29T02:37:39.001Z,10.90
2019-05-29T02:41:50.549Z,11.00
2019-05-29T02:46:02.221Z,11.00
2019-05-29T02:50:14.617Z,10.90
2019-05-29T02:54:27.319Z,11.00
2019-05-29T02:58:41.428Z,11.00
2019-05-29T03:02:53.347Z,11.00
2019-05-29T03:07:05.141Z,11.00
2019-05-29T03:11:17.004Z,11.00
2019-05-29T03:15:29.730Z,11.10
2019-05-29T03:19:41.665Z,11.10
2019-05-29T03:23:53.476Z,11.10
2019-05-29T03:28:05.393Z,11.20
2019-05-29T03:32:17.203Z,11.20
2019-05-29T03:36:35.535Z,11.20
2019-05-29T03:40:42.594Z,11.20
2019-05-29T03:44:54.231Z,11.20
2019-05-29T03:49:06.029Z,11.30
2019-05-29T03:53:17.922Z,11.40
2019-05-29T03:57:31.652Z,11.50
2019-05-29T04:01:43.261Z,11.40
2019-05-29T04:05:55.173Z,11.40
2019-05-29T04:10:07.840Z,11.30
2019-05-29T04:14:19.892Z,11.40
2019-05-29T04:18:33.948Z,11.50
2019-05-29T04:22:47.060Z,11.60
2019-05-29T04:27:03.213Z,11.60
2019-05-29T04:31:15.132Z,11.60
2019-05-29T04:35:28.248Z,11.50
2019-05-29T04:39:40.597Z,11.40
2019-05-29T04:43:56.879Z,11.40
2019-05-29T04:48:06.276Z,11.40
2019-05-29T04:52:17.951Z,11.40
2019-05-29T04:56:30.722Z,11.40
2019-05-29T05:00:58.119Z,11.60
2019-05-29T05:04:56.047Z,11.60
2019-05-29T05:09:08.495Z,11.70
2019-05-29T05:13:20.779Z,11.70
2019-05-29T05:17:33.723Z,11.70
2019-05-29T05:21:45.415Z,11.80
2019-05-29T05:25:57.334Z,11.90
2019-05-29T05:30:09.623Z,12.10
2019-05-29T05:34:21.310Z,12.10
2019-05-29T05:38:33.121Z,12.20
2019-05-29T05:42:45.040Z,12.30
2019-05-29T05:46:56.984Z,12.40
2019-05-29T05:51:08.837Z,12.50
2019-05-29T05:55:20.836Z,12.50
2019-05-29T05:59:33.583Z,12.60
2019-05-29T06:03:45.459Z,12.70
2019-05-29T06:07:57.675Z,12.80
2019-05-29T06:12:09.949Z,12.90
2019-05-29T06:16:22.120Z,13.00
2019-05-29T06:20:34.701Z,13.10
2019-05-29T06:24:46.628Z,13.30
2019-05-29T06:28:58.541Z,13.40
2019-05-29T06:33:10.140Z,13.50
2019-05-29T06:37:22.944Z,13.60
2019-05-29T06:41:35.611Z,13.60
2019-05-29T06:45:47.457Z,13.60
2019-05-29T06:49:59.447Z,13.70
2019-05-29T06:54:11.323Z,13.70
2019-05-29T06:58:23.236Z,13.80
2019-05-29T07:02:36.405Z,13.90
2019-05-29T07:06:48.127Z,13.90
2019-05-29T07:11:00.071Z,14.00
2019-05-29T07:15:12.412Z,14.10
2019-05-29T07:19:34.223Z,14.20
2019-05-29T07:23:38.689Z,14.30
2019-05-29T07:27:50.700Z,14.30
2019-05-29T07:32:02.504Z,14.30
2019-05-29T07:36:14.583Z,14.30
2019-05-29T07:40:26.531Z,14.40
2019-05-29T07:44:38.193Z,14.40
2019-05-29T07:48:50.568Z,14.40
2019-05-29T07:53:02.437Z,14.30
2019-05-29T07:57:14.343Z,14.40
2019-05-29T08:01:26.141Z,14.40
2019-05-29T08:05:39.111Z,14.40
2019-05-29T08:09:52.062Z,14.40
2019-05-29T08:14:04.055Z,14.40
2019-05-29T08:18:16.141Z,14.60
2019-05-29T08:22:34.193Z,14.70
2019-05-29T08:26:42.874Z,14.70
2019-05-29T08:30:56.595Z,14.60
2019-05-29T08:35:08.828Z,14.60
2019-05-29T08:39:35.281Z,14.60
2019-05-29T08:43:34.088Z,14.70
2019-05-29T08:47:47.753Z,14.90
2019-05-29T08:52:11.399Z,15.10
2019-05-29T08:56:12.931Z,15.20
2019-05-29T09:00:25.014Z,15.40
2019-05-29T09:04:36.787Z,15.50
2019-05-29T09:08:50.535Z,15.60
2019-05-29T09:13:05.130Z,15.50
2019-05-29T09:17:16.880Z,15.50
2019-05-29T09:21:29.203Z,15.40
2019-05-29T09:25:41.186Z,15.40
2019-05-29T09:29:53.017Z,15.40
2019-05-29T09:34:05.012Z,15.50
2019-05-29T09:38:16.929Z,15.80
2019-05-29T09:42:28.732Z,15.90
2019-05-29T09:46:40.339Z,15.90
2019-05-29T09:50:52.017Z,16.00
2019-05-29T09:55:03.917Z,16.20
2019-05-29T09:59:15.870Z,16.20
2019-05-29T10:03:27.636Z,16.20
2019-05-29T10:07:39.776Z,16.30
2019-05-29T10:11:51.638Z,16.40
2019-05-29T10:16:04.588Z,16.70
2019-05-29T10:20:17.136Z,16.80
2019-05-29T10:24:32.171Z,16.80
2019-05-29T10:28:55.807Z,16.80
2019-05-29T10:32:55.764Z,16.90
2019-05-29T10:37:07.559Z,16.90
2019-05-29T10:41:19.400Z,16.90
2019-05-29T10:45:31.124Z,16.80
2019-05-29T10:49:43.503Z,16.70
2019-05-29T10:53:58.033Z,16.80
2019-05-29T10:58:08.679Z,17.00
2019-05-29T11:02:20.585Z,17.40
2019-05-29T11:06:32.512Z,17.80
2019-05-29T11:10:44.433Z,18.10
2019-05-29T11:14:56.914Z,18.20
2019-05-29T11:19:09.896Z,18.20
2019-05-29T11:23:21.884Z,18.40
2019-05-29T11:27:33.806Z,18.50
2019-05-29T11:31:45.552Z,18.90
2019-05-29T11:36:09.453Z,19.20
2019-05-29T11:40:10.832Z,19.30
2019-05-29T11:44:22.627Z,19.00
2019-05-29T11:48:34.421Z,19.00
2019-05-29T11:52:46.234Z,19.30
2019-05-29T11:56:59.175Z,19.30
2019-05-29T12:01:11.172Z,19.50
2019-05-29T12:05:24.330Z,19.50
2019-05-29T12:09:36.577Z,19.20
2019-05-29T12:13:48.612Z,18.60
2019-05-29T12:18:21.915Z,18.20
2019-05-29T12:22:14.414Z,17.80
2019-05-29T12:26:27.059Z,17.90
2019-05-29T12:30:38.979Z,17.90
2019-05-29T12:34:53.747Z,17.80
2019-05-29T12:39:05.031Z,17.90
2019-05-29T12:43:26.468Z,17.80
2019-05-29T12:47:30.107Z,17.60
2019-05-29T12:51:41.987Z,17.40
2019-05-29T12:55:54.016Z,17.20
2019-05-29T13:00:07.540Z,17.00
2019-05-29T13:04:20.548Z,16.80
2019-05-29T13:08:32.337Z,16.80
2019-05-29T13:12:44.270Z,16.70
2019-05-29T13:16:56.729Z,16.60
2019-05-29T13:21:08.408Z,16.60
2019-05-29T13:25:20.551Z,16.50
2019-05-29T13:29:32.192Z,16.70
2019-05-29T13:33:44.153Z,16.90
2019-05-29T13:37:56.939Z,16.90
2019-05-29T13:42:11.826Z,17.00
2019-05-29T13:46:22.716Z,17.10
2019-05-29T13:50:34.467Z,17.10
2019-05-29T13:54:46.279Z,17.10
2019-05-29T13:58:58.226Z,17.30
2019-05-29T14:03:10.141Z,17.40
2019-05-29T14:07:21.988Z,17.20
2019-05-29T14:11:33.981Z,17.10
2019-05-29T14:15:45.792Z,17.00
2019-05-29T14:19:57.480Z,16.90
2019-05-29T14:24:26.864Z,16.90
2019-05-29T14:28:22.734Z,16.80
2019-05-29T14:32:34.648Z,16.80
2019-05-29T14:36:46.246Z,16.80
2019-05-29T14:40:59.134Z,16.80
2019-05-29T14:45:12.527Z,16.80
2019-05-29T14:49:27.017Z,16.60
2019-05-29T14:53:38.258Z,16.60
2019-05-29T14:57:50.185Z,16.50
2019-05-29T15:02:06.203Z,16.50
2019-05-29T15:06:16.419Z,16.40
2019-05-29T15:10:28.215Z,16.40
2019-05-29T15:14:40.074Z,16.40
2019-05-29T15:18:52.739Z,16.30
2019-05-29T15:23:05.154Z,16.30
2019-05-29T15:27:18.370Z,16.30
2019-05-29T15:31:31.223Z,16.10
2019-05-29T15:35:43.142Z,16.00
2019-05-29T15:39:54.849Z,16.00
2019-05-29T15:44:06.839Z,16.00
2019-05-29T15:48:18.713Z,16.10
2019-05-29T15:52:30.520Z,16.10
2019-05-29T15:56:42.320Z,16.10
2019-05-29T16:00:54.342Z,16.10
2019-05-29T16:05:06.777Z,16.00
2019-05-29T16:09:18.858Z,16.00
2019-05-29T16:13:30.819Z,16.00
2019-05-29T16:17:42.670Z,16.00
2019-05-29T16:21:54.456Z,15.90
2019-05-29T16:26:06.375Z,16.00
2019-05-29T16:30:20.048Z,15.90
2019-05-29T16:34:32.234Z,15.80
2019-05-29T16:38:44.061Z,15.70
2019-05-29T16:42:56.138Z,15.70
2019-05-29T16:47:07.942Z,15.80
2019-05-29T16:51:20.892Z,15.80
2019-05-29T16:55:33.149Z,15.80
2019-05-29T16:59:45.410Z,15.80
2019-05-29T17:03:57.542Z,15.80
2019-05-29T17:08:10.504Z,15.80
2019-05-29T17:12:22.617Z,15.80
2019-05-29T17:16:34.344Z,15.70
2019-05-29T17:20:47.053Z,15.60
2019-05-29T17:24:58.659Z,15.60
2019-05-29T17:29:10.429Z,15.70
2019-05-29T17:33:23.114Z,15.80
2019-05-29T17:37:34.994Z,15.70
2019-05-29T17:41:46.706Z,15.80
2019-05-29T17:45:58.542Z,15.80
2019-05-29T17:50:10.737Z,15.80
2019-05-29T17:54:22.493Z,15.80
2019-05-29T17:58:34.341Z,15.90
2019-05-29T18:02:52.023Z,15.70
2019-05-29T18:06:59.631Z,15.70
2019-05-29T18:11:11.740Z,15.70
2019-05-29T18:15:25.368Z,15.60
2019-05-29T18:19:37.895Z,15.60
2019-05-29T18:23:53.136Z,15.60
2019-05-29T18:28:03.141Z,15.70
2019-05-29T18:32:14.949Z,15.70
2019-05-29T18:36:27.449Z,15.70
2019-05-29T18:40:39.368Z,15.70
2019-05-29T18:44:51.277Z,15.70
2019-05-29T18:49:03.138Z,15.60
2019-05-29T18:53:15.226Z,15.60
2019-05-29T18:57:27.189Z,15.50
2019-05-29T19:01:39.231Z,15.40
2019-05-29T19:05:51.257Z,15.40
2019-05-29T19:10:06.513Z,15.40
2019-05-29T19:14:17.550Z,15.30
2019-05-29T19:18:30.218Z,15.30
2019-05-29T19:22:41.983Z,15.30
2019-05-29T19:26:53.870Z,15.40
2019-05-29T19:31:05.808Z,15.30
2019-05-29T19:35:18.024Z,15.30
2019-05-29T19:39:31.943Z,15.30
2019-05-29T19:43:43.972Z,15.20
2019-05-29T19:47:56.705Z,15.30
2019-05-29T19:52:08.748Z,15.20
2019-05-29T19:56:20.774Z,15.20
2019-05-29T20:00:32.703Z,15.20
2019-05-29T20:04:44.604Z,15.20
2019-05-29T20:08:56.499Z,15.20
2019-05-29T20:13:08.310Z,15.20
2019-05-29T20:17:20.124Z,15.30
2019-05-29T20:21:32.772Z,15.20
2019-05-29T20:25:44.884Z,15.20
2019-05-29T20:29:57.593Z,15.20
2019-05-29T20:34:09.257Z,15.20
2019-05-29T20:38:21.172Z,15.30
2019-05-29T20:42:34.203Z,15.30
2019-05-29T20:46:46.300Z,15.30
2019-05-29T20:50:58.123Z,15.30
2019-05-29T20:55:10.265Z,15.30
2019-05-29T20:59:23.033Z,15.20
2019-05-29T21:03:36.251Z,15.10
2019-05-29T21:07:48.352Z,15.20
2019-05-29T21:12:00.281Z,15.20
2019-05-29T21:16:12.093Z,15.20
2019-05-29T21:20:24.093Z,15.20
2019-05-29T21:24:36.424Z,15.20
2019-05-29T21:28:50.676Z,15.10
2019-05-29T21:33:01.641Z,15.10
2019-05-29T21:37:13.541Z,15.00
2019-05-29T21:41:26.149Z,15.00
2019-05-29T21:45:38.737Z,15.00
2019-05-29T21:49:50.404Z,15.00
2019-05-29T21:54:02.175Z,14.90
2019-05-29T21:58:14.068Z,15.00
2019-05-29T22:02:25.936Z,14.90
2019-05-29T22:06:38.525Z,14.90
2019-05-29T22:10:51.456Z,14.90
2019-05-29T22:15:04.041Z,14.90
2019-05-29T22:19:16.066Z,14.90
2019-05-29T22:23:28.684Z,14.90
2019-05-29T22:27:40.396Z,15.00
2019-05-29T22:31:53.338Z,14.90
2019-05-29T22:36:05.308Z,14.90
2019-05-29T22:40:17.408Z,14.80
2019-05-29T22:44:29.047Z,14.80
2019-05-29T22:48:40.707Z,14.80
2019-05-29T22:52:53.798Z,14.80
2019-05-29T22:57:07.732Z,14.80
2019-05-29T23:01:20.058Z,14.80
2019-05-29T23:05:31.967Z,14.70
2019-05-29T23:09:43.817Z,14.70
2019-05-29T23:13:56.200Z,14.70
2019-05-29T23:18:08.032Z,14.70
2019-05-29T23:22:19.828Z,14.70
2019-05-29T23:26:31.628Z,14.70
2019-05-29T23:30:43.432Z,14.70
2019-05-29T23:34:55.300Z,14.70
2019-05-29T23:39:07.669Z,14.70
2019-05-29T23:43:19.469Z,14.80
2019-05-29T23:47:31.147Z,14.70
2019-05-29T23:51:42.832Z,14.70
2019-05-29T23:55:55.721Z,14.80
